Terminal Aerodrome Forecast
Issued by NWS Detroit/Pontiac, MI

Home | Current Version | Previous Version | Text Only | Print | Product List | Glossary On
Versions: 1 2 3 4 5 6 7 8 9 10 11 12 13 14 15 16 17 18 19 20 21 22 23 24 25 26 27 28 29 30 31 32 33 34
000
FTUS43 KDTX 011637 AAB
TAFDTW
TAF AMD
KDTW 011637Z 0117/0218 21008KT P6SM BKN035
     FM020000 16004KT P6SM SCT045
     FM020600 17003KT 4SM BR SCT003
     FM020800 00000KT 2SM BR SCT001
     FM021400 23005KT P6SM SCT035=

USA.gov is the U.S. government's official web portal to all federal, state and local government web resources and services.